Latest Weather Observations for Wulungurru (Kintore)

IDD60801

Issued at 11:01 pm CST Tuesday 27 September 2016 (issued every 30 minutes, with the page automatically refreshed every 10 minutes)

About weather observations | Map of weather stations | Latest weather observations for NT | Other Formats
Station Details ID: 015664 Name: WALUNGURRU AIRPORT Lat: -23.27 Lon: 129.38 Height: 454.3 m
Data from the previous 72 hours. | See also: Recent months at Wulungurru (Kintore)
Date/Time
CST
Temp
°C
App
Temp
°C
Dew
Point
°C
Rel
Hum
%
Delta-T
°C
Wind Press
QNH
hPa
Press
MSL
hPa
Rain since
9am
mm
Dir  Spd
km/h
Gust
km/h
Spd
kts
Gust
kts
27/11:00pm 25.9 23.7 10.9 39 8.6 WSW 13 20 7 11 1012.3 - 0.2
27/10:30pm 26.1 24.6 11.8 41 8.3 NNW 11 15 6 8 1012.1 - 0.2
27/10:00pm 26.7 24.0 10.4 36 9.3 N 15 20 8 11 1012.1 - 0.2
27/09:30pm 27.1 24.7 9.9 34 9.8 NW 13 17 7 9 1011.7 - 0.2
27/09:00pm 27.7 24.0 10.0 33 10.1 NW 20 30 11 16 1011.7 1010.1 0.2
27/08:30pm 28.2 24.2 10.4 33 10.2 NW 22 32 12 17 1011.9 - 0.2
27/08:00pm 28.5 25.4 10.2 32 10.5 NNW 17 22 9 12 1011.3 - 0.2
27/07:30pm 28.6 25.9 10.3 32 10.5 NNW 15 20 8 11 1011.0 - 0.2
27/07:00pm 29.0 25.5 10.2 31 10.8 NNW 19 24 10 13 1010.7 - 0.2
27/06:30pm 29.3 25.1 9.9 30 11.1 NNW 22 30 12 16 1010.3 - 0.2
27/06:00pm 29.7 25.7 10.3 30 11.2 NNW 22 28 12 15 1010.2 1008.6 0.2
27/05:30pm 29.8 25.3 9.9 29 11.4 NNW 24 30 13 16 1010.2 - 0.2
27/05:00pm 29.9 26.3 9.9 29 11.5 NW 19 26 10 14 1010.1 - 0.2
27/04:30pm 30.3 26.3 10.3 29 11.6 NW 22 30 12 16 1010.1 - 0.2
27/04:00pm 30.3 26.4 10.8 30 11.4 NNW 22 41 12 22 1010.1 - 0.2
27/03:30pm 30.7 26.2 10.1 28 11.9 NNW 24 39 13 21 1010.2 - 0.2
27/03:00pm 30.8 27.8 10.7 29 11.8 N 17 32 9 17 1010.6 1009.0 0.2
27/02:30pm 31.0 27.8 11.4 30 11.6 N 19 32 10 17 1010.7 - 0.2
27/02:00pm 30.8 27.6 11.2 30 11.6 N 19 28 10 15 1011.4 - 0.2
27/01:30pm 30.0 26.5 11.0 31 11.1 N 20 28 11 15 1011.7 - 0.2
27/01:00pm 30.5 27.1 10.5 29 11.6 N 19 26 10 14 1012.3 - 0.2
27/12:30pm 30.0 27.0 10.5 30 11.3 N 17 22 9 12 1012.8 - 0.2
27/12:00pm 29.4 26.9 11.0 32 10.8 N 15 26 8 14 1013.4 1011.8 0.2
27/11:30am 28.8 25.6 11.4 34 10.2 N 19 28 10 15 1014.2 - 0.2
27/11:00am 28.1 25.6 13.6 41 8.8 NNE 19 24 10 13 1014.2 - 0.2
27/10:30am 26.4 23.8 13.9 46 7.6 NNE 20 28 11 15 1014.8 - 0.0
27/10:00am 25.4 23.5 14.2 50 6.8 NNE 17 24 9 13 1015.0 - 0.0
27/09:30am 24.7 22.3 14.5 53 6.2 NE 20 26 11 14 1014.7 - 0.0
27/09:00am 23.7 21.4 14.1 55 5.8 NE 19 26 10 14 1014.4 1012.8 0.2
27/08:30am 22.4 20.3 13.5 57 5.3 NE 17 20 9 11 1014.8 - 0.2
27/08:00am 21.9 19.2 13.0 57 5.2 ENE 19 24 10 13 1013.9 - 0.2
27/07:30am 21.8 19.0 12.6 56 5.3 ENE 19 24 10 13 1013.6 - 0.2
27/07:00am 20.7 19.6 13.2 62 4.4 ENE 11 15 6 8 1013.9 - 0.2
27/06:30am 20.8 19.8 13.3 62 4.4 E 11 13 6 7 1013.7 - 0.2
27/06:00am 20.3 19.4 13.7 66 3.9 ENE 11 13 6 7 1013.4 1011.8 0.2
27/05:30am 20.4 19.4 13.4 64 4.1 NE 11 15 6 8 1013.1 - 0.2
27/05:00am 20.2 18.7 13.2 64 4.1 NE 13 17 7 9 1012.6 - 0.2
27/04:30am 20.0 19.1 13.7 67 3.7 NE 11 13 6 7 1012.5 - 0.2
27/04:00am 20.0 18.9 14.4 70 3.3 NE 13 17 7 9 1012.9 - 0.2
27/03:30am 19.6 19.2 15.3 76 2.6 NE 11 13 6 7 1012.9 - 0.2
27/03:00am 20.6 18.8 14.5 68 3.6 NE 17 20 9 11 1012.8 1011.2 0.0
27/02:30am 20.9 22.1 15.0 69 3.5 ESE 2 7 1 4 1012.9 - 0.0
27/02:00am 21.1 21.1 14.3 65 4.0 SE 7 11 4 6 1012.7 - 0.0
27/01:30am 21.7 19.7 12.8 57 5.2 ENE 15 19 8 10 1013.4 - 0.0
27/01:00am 22.0 20.3 12.5 54 5.5 NNE 13 15 7 8 1013.9 - 0.0
27/12:30am 22.0 20.4 11.7 52 5.9 SSE 11 17 6 9 1014.3 - 0.0
27/12:00am 23.5 21.7 9.5 41 7.8 SSE 9 13 5 7 1014.5 1012.9 0.0
 
Date/Time
CST
Temp
°C
App
Temp
°C
Dew
Point
°C
Rel
Hum
%
Delta-T
°C
Wind Press
QNH
hPa
Press
MSL
hPa
Rain since
9am
mm
Dir  Spd
km/h
Gust
km/h
Spd
kts
Gust
kts
26/11:30pm 23.4 20.5 9.8 42 7.6 S 15 20 8 11 1014.3 - 0.0
26/11:00pm 23.4 21.0 10.1 43 7.4 S 13 15 7 8 1014.4 - 0.0
26/10:30pm 22.9 21.4 10.7 46 6.9 S 9 13 5 7 1014.9 - 0.0
26/10:00pm 24.2 21.7 8.2 36 8.7 S 11 15 6 8 1015.1 - 0.0
26/09:30pm 24.2 21.0 8.6 37 8.5 S 15 26 8 14 1015.1 - 0.0
26/09:00pm 24.7 20.4 7.8 34 9.1 SSW 20 30 11 16 1014.9 1013.3 0.0
26/08:30pm 24.8 20.6 8.3 35 9.0 SW 20 26 11 14 1014.5 - 0.0
26/08:00pm 25.6 20.6 8.1 33 9.6 S 24 33 13 18 1014.2 - 0.0
26/07:30pm 25.4 19.0 8.4 34 9.3 SSW 32 50 17 27 1014.2 - 0.0
26/07:00pm 26.3 20.5 7.8 31 10.1 SSW 28 39 15 21 1013.3 - 0.0
26/06:30pm 26.7 21.7 8.2 31 10.2 SSW 24 37 13 20 1013.1 - 0.0
26/06:00pm 27.5 22.4 9.3 32 10.3 S 26 39 14 21 1012.6 1011.0 0.0
26/05:30pm 28.8 24.0 9.0 29 11.2 S 24 33 13 18 1011.6 - 0.0
26/05:00pm 30.5 26.7 7.7 24 12.7 SSW 17 24 9 13 1010.9 - 0.0
26/04:30pm 31.2 27.1 6.3 21 13.6 WSW 17 28 9 15 1010.7 - 0.0
26/04:00pm 31.4 26.3 5.8 20 13.9 W 22 30 12 16 1010.6 - 0.0
26/03:30pm 32.0 27.4 5.5 19 14.3 W 19 28 10 15 1010.5 - 0.0
26/03:00pm 32.8 28.3 6.2 19 14.6 W 19 26 10 14 1010.5 1008.9 0.0
26/02:30pm 32.1 27.5 6.3 20 14.2 W 20 32 11 17 1010.6 - 0.0
26/02:00pm 32.8 28.7 6.2 19 14.6 W 17 28 9 15 1010.6 - 0.0
26/01:30pm 32.5 28.1 7.4 21 14.0 NW 20 28 11 15 1010.8 - 0.0
26/01:00pm 32.1 27.4 7.7 22 13.7 N 22 39 12 21 1011.0 - 0.0
26/12:30pm 32.3 28.2 8.5 23 13.5 N 20 32 11 17 1011.4 - 0.0
26/12:00pm 30.9 26.3 9.7 27 12.2 N 24 32 13 17 1011.9 1010.2 0.0
26/11:30am 29.9 24.6 9.9 29 11.5 N 28 35 15 19 1012.2 - 0.0
26/11:00am 29.1 23.5 10.3 31 10.8 N 30 41 16 22 1012.4 - 0.0
26/10:30am 29.0 23.5 10.6 32 10.7 NNE 30 41 16 22 1012.6 - 0.0
26/10:00am 28.6 23.6 10.8 33 10.3 NNE 28 37 15 20 1012.7 - 0.0
26/09:30am 27.0 23.4 10.7 36 9.4 NE 20 30 11 16 1012.8 - 0.0
26/09:00am 24.4 19.4 8.0 35 8.9 ENE 24 28 13 15 1012.5 1010.9 0.0
26/08:30am 23.7 18.3 7.8 36 8.6 ENE 26 33 14 18 1012.3 - 0.0
26/08:00am 22.5 16.9 5.4 33 8.7 ENE 24 32 13 17 1012.1 - 0.0
26/07:30am 23.1 17.0 4.6 30 9.4 E 26 33 14 18 1011.7 - 0.0
26/07:00am 23.1 17.9 3.6 28 9.7 E 20 30 11 16 1011.6 - 0.0
26/06:30am 24.3 19.2 3.0 25 10.5 E 19 24 10 13 1011.1 - 0.0
26/06:00am 22.9 17.6 2.9 27 9.8 E 20 28 11 15 1010.7 1009.1 0.0
26/05:30am 22.8 17.1 2.8 27 9.8 E 22 30 12 16 1010.5 - 0.0
26/05:00am 22.9 17.5 2.4 26 9.9 E 20 28 11 15 1010.4 - 0.0
26/04:30am 23.8 19.2 1.4 23 10.7 E 15 20 8 11 1010.1 - 0.0
26/04:00am 23.7 17.8 2.0 24 10.5 E 22 33 12 18 1010.1 - 0.0
26/03:30am 23.9 16.9 2.1 24 10.6 E 28 37 15 20 1010.0 - 0.0
26/03:00am 23.9 18.4 2.1 24 10.6 E 20 32 11 17 1010.2 1008.6 0.0
26/02:30am 24.6 17.6 -0.5 19 11.7 E 26 39 14 21 1010.4 - 0.0
26/02:00am 24.9 18.5 -1.8 17 12.1 ESE 22 35 12 19 1010.7 - 0.0
26/01:30am 24.9 17.0 -1.8 17 12.1 SE 30 43 16 23 1010.9 - 0.0
26/01:00am 24.6 17.2 -0.5 19 11.7 SE 28 37 15 20 1011.3 - 0.0
26/12:30am 24.6 18.0 -0.5 19 11.7 SE 24 33 13 18 1011.6 - 0.0
26/12:00am 24.6 17.3 0.2 20 11.5 SSE 28 39 15 21 1012.0 1010.4 0.0
 
Date/Time
CST
Temp
°C
App
Temp
°C
Dew
Point
°C
Rel
Hum
%
Delta-T
°C
Wind Press
QNH
hPa
Press
MSL
hPa
Rain since
9am
mm
Dir  Spd
km/h
Gust
km/h
Spd
kts
Gust
kts
25/11:30pm 25.2 19.4 0.0 19 11.9 SE 20 28 11 15 1012.0 - 0.0
25/11:00pm 25.7 20.0 0.4 19 12.1 SSE 20 28 11 15 1012.1 - 0.0
25/10:30pm 24.4 19.0 1.3 22 11.1 SSE 19 24 10 13 1012.3 - 0.0
25/10:00pm 24.4 19.4 1.3 22 11.1 SSE 17 20 9 11 1012.3 - 0.0
25/09:30pm 25.1 20.5 1.3 21 11.5 S 15 19 8 10 1012.1 - 0.0
25/09:00pm 24.1 19.9 1.7 23 10.8 SSE 13 15 7 8 1012.1 1010.5 0.0
25/08:30pm 24.2 20.0 1.8 23 10.8 SSE 13 13 7 7 1012.0 - 0.0
25/08:00pm 25.0 21.2 1.8 22 11.3 SSE 11 13 6 7 1011.6 - 0.0
25/07:30pm 26.6 23.6 1.1 19 12.4 SSE 6 9 3 5 1011.1 - 0.0
25/07:00pm 28.2 24.6 0.9 17 13.4 W 9 13 5 7 1010.7 - 0.0
25/06:30pm 30.6 25.0 1.0 15 14.7 W 20 28 11 15 1010.4 - 0.0
25/06:00pm 31.6 26.5 0.9 14 15.4 W 17 22 9 12 1010.1 1008.5 0.0
25/05:30pm 32.2 26.2 1.3 14 15.6 W 22 35 12 19 1009.9 - 0.0
25/05:00pm 32.4 25.7 1.5 14 15.7 W 26 39 14 21 1009.9 - 0.0
25/04:30pm 32.8 26.9 1.8 14 15.9 W 22 35 12 19 1009.9 - 0.0
25/04:00pm 32.2 27.0 2.3 15 15.4 WNW 19 32 10 17 1009.9 - 0.0
25/03:30pm 32.4 25.7 1.5 14 15.7 WNW 26 43 14 23 1010.0 - 0.0
25/03:00pm 32.8 28.0 2.8 15 15.6 W 17 28 9 15 1010.2 1008.6 0.0
25/02:30pm 31.9 26.9 1.1 14 15.5 W 17 26 9 14 1010.6 - 0.0
25/02:00pm 31.6 27.6 2.7 16 14.9 W 13 20 7 11 1011.1 - 0.0
25/01:30pm 31.5 27.9 2.7 16 14.8 NW 11 20 6 11 1011.6 - 0.0
25/01:00pm 30.7 27.3 2.0 16 14.6 W 9 17 5 9 1012.4 - 0.0
25/12:30pm 30.2 26.9 2.5 17 14.1 SE 9 13 5 7 1013.0 - 0.0
25/12:00pm 29.5 26.1 1.9 17 13.9 NNE 9 15 5 8 1013.6 1012.0 0.0
25/11:30am 28.8 25.2 2.9 19 13.2 ESE 11 19 6 10 1014.0 - 0.0
25/11:00am 28.0 23.5 4.3 22 12.3 E 17 22 9 12 1014.4 - 0.0
25/10:30am 26.6 21.8 5.5 26 11.1 ENE 20 32 11 17 1014.8 - 0.0
25/10:00am 25.2 20.0 5.4 28 10.3 ENE 22 32 12 17 1014.9 - 0.0
25/09:30am 23.9 17.8 4.8 29 9.7 ENE 26 37 14 20 1014.8 - 0.0
25/09:00am 22.4 17.3 4.0 30 9.2 E 20 28 11 15 1015.1 1013.5 0.0
25/08:30am 21.7 16.6 3.9 31 8.8 E 20 33 11 18 1014.7 - 0.0
25/08:00am 17.9 13.1 2.6 36 7.2 S 17 28 9 15 1014.5 - 0.0
25/07:30am 16.4 10.2 2.4 39 6.5 S 24 33 13 18 1014.0 - 0.0
25/07:00am 15.3 9.8 1.8 40 6.1 S 20 26 11 14 1013.6 - 0.0
25/06:30am 15.2 10.2 1.4 39 6.2 S 17 26 9 14 1013.3 - 0.0
25/06:00am 15.5 10.8 0.9 37 6.5 S 15 20 8 11 1013.0 1011.4 0.0
25/05:30am 16.3 11.9 0.4 34 7.0 S 13 24 7 13 1012.6 - 0.0
25/05:00am 16.6 11.9 0.7 34 7.1 S 15 22 8 12 1012.2 - 0.0
25/04:30am 16.4 11.1 -0.3 32 7.3 S 17 22 9 12 1012.1 - 0.0
25/04:00am 17.1 10.9 -0.6 30 7.7 SSE 22 30 12 16 1012.0 - 0.0
25/03:30am 17.4 11.4 -1.3 28 8.1 SSE 20 30 11 16 1012.1 - 0.0
25/03:00am 17.5 11.0 -2.2 26 8.4 SSE 22 35 12 19 1012.2 1010.6 0.0
25/02:30am 17.9 11.0 -2.9 24 8.7 SSE 24 30 13 16 1012.4 - 0.0
25/02:00am 18.5 11.9 -3.6 22 9.2 SSE 22 30 12 16 1012.4 - 0.0
25/01:30am 17.9 11.2 -4.1 22 9.0 S 22 28 12 15 1012.6 - 0.0
25/01:00am 18.6 11.9 -4.1 21 9.3 S 22 26 12 14 1012.8 - 0.0
25/12:30am 19.0 12.7 -4.4 20 9.6 SSE 20 26 11 14 1013.1 - 0.0
25/12:00am 19.1 12.8 -3.7 21 9.5 SSE 20 24 11 13 1013.3 1011.7 0.0
 
Date/Time
CST
Temp
°C
App
Temp
°C
Dew
Point
°C
Rel
Hum
%
Delta-T
°C
Wind Press
QNH
hPa
Press
MSL
hPa
Rain since
9am
mm
Dir  Spd
km/h
Gust
km/h
Spd
kts
Gust
kts
24/11:30pm 19.5 13.8 -3.4 21 9.6 S 17 20 9 11 1013.3 - 0.0

Other Formats:

Comma delimited format used in spreadsheet applications
http://www.bom.gov.au/fwo/IDD60801/IDD60801.94321.axf

JavaScript Object Notation format (JSON) in row-major order
http://www.bom.gov.au/fwo/IDD60801/IDD60801.94321.json